createdAt,value
2022-11-30T00:00:40.634Z,3.88
2022-11-30T00:03:45.872Z,3.46
2022-11-30T00:06:51.876Z,3.75
2022-11-30T00:09:57.706Z,3.69
2022-11-30T00:13:03.304Z,3.78
2022-11-30T00:16:11.723Z,4.02
2022-11-30T00:19:17.028Z,3.91
2022-11-30T00:22:23.407Z,4.29
2022-11-30T00:25:28.272Z,4.22
2022-11-30T00:28:35.101Z,4.37
2022-11-30T00:31:41.825Z,4.27
2022-11-30T00:34:47.910Z,4.64
2022-11-30T00:37:54.758Z,4.29
2022-11-30T00:40:54.154Z,4.05
2022-11-30T00:43:40.726Z,4.56
2022-11-30T00:46:32.756Z,4.30
2022-11-30T00:49:25.619Z,3.99
2022-11-30T00:52:30.296Z,4.03
2022-11-30T00:55:38.183Z,4.10
2022-11-30T00:58:36.719Z,4.00
2022-11-30T01:01:42.798Z,3.80
2022-11-30T01:04:47.858Z,4.02
2022-11-30T01:07:54.652Z,3.94
2022-11-30T01:11:02.096Z,4.08
2022-11-30T01:14:09.705Z,3.82
2022-11-30T01:17:16.349Z,3.88
2022-11-30T01:20:22.922Z,4.29
2022-11-30T01:23:28.075Z,3.96
2022-11-30T01:26:34.081Z,4.26
2022-11-30T01:29:40.035Z,4.23
2022-11-30T01:32:45.853Z,4.28
2022-11-30T01:35:51.821Z,4.44
2022-11-30T01:39:02.746Z,4.38
2022-11-30T01:42:08.614Z,4.68
2022-11-30T01:45:14.284Z,4.78
2022-11-30T01:48:22.082Z,4.91
2022-11-30T01:51:27.698Z,4.70
2022-11-30T01:54:39.676Z,4.64
2022-11-30T01:58:02.872Z,4.90
2022-11-30T02:01:08.520Z,4.76
2022-11-30T02:04:45.493Z,5.04
2022-11-30T02:07:51.660Z,4.95
2022-11-30T02:11:02.210Z,5.29
2022-11-30T02:14:31.842Z,5.34
2022-11-30T02:17:56.860Z,5.49
2022-11-30T02:21:23.415Z,5.28
2022-11-30T02:24:39.974Z,5.43
2022-11-30T02:28:16.941Z,5.05
2022-11-30T02:31:25.409Z,4.88
2022-11-30T02:34:33.209Z,4.97
2022-11-30T02:37:37.981Z,4.98
2022-11-30T02:40:43.997Z,4.71
2022-11-30T02:43:48.870Z,-0.50
2022-11-30T02:47:34.062Z,-2.07
2022-11-30T02:50:33.150Z,-2.32
2022-11-30T02:53:38.162Z,-2.40
2022-11-30T02:56:43.826Z,-2.41
2022-11-30T02:59:49.406Z,-2.25
2022-11-30T03:02:55.434Z,-1.80
2022-11-30T03:06:02.138Z,-2.30
2022-11-30T03:09:08.402Z,-2.30
2022-11-30T03:12:13.805Z,-2.12
2022-11-30T03:15:20.324Z,-1.19
2022-11-30T03:18:25.198Z,-0.53
2022-11-30T03:21:31.125Z,-0.19
2022-11-30T03:24:29.613Z,-0.03
2022-11-30T03:27:35.904Z,0.23
2022-11-30T03:30:42.789Z,0.27
2022-11-30T03:33:48.524Z,0.25
2022-11-30T03:36:54.156Z,-0.71
2022-11-30T03:40:00.008Z,-0.70
2022-11-30T03:43:05.861Z,-1.53
2022-11-30T03:46:11.604Z,-1.90
2022-11-30T03:49:10.611Z,-2.25
2022-11-30T03:51:55.940Z,-2.23
2022-11-30T03:54:48.522Z,-1.60
2022-11-30T03:57:40.927Z,-0.42
2022-11-30T04:00:46.087Z,-0.05
2022-11-30T04:03:52.445Z,0.07
2022-11-30T04:06:57.585Z,0.21
2022-11-30T04:10:08.277Z,0.25
2022-11-30T04:13:10.928Z,0.34
2022-11-30T04:16:16.735Z,0.36
2022-11-30T04:19:21.732Z,-0.83
2022-11-30T04:22:26.719Z,-2.18
2022-11-30T04:25:32.204Z,-2.02
2022-11-30T04:28:38.605Z,-2.36
2022-11-30T04:31:45.191Z,-2.40
2022-11-30T04:34:51.801Z,-2.45
2022-11-30T04:37:58.485Z,-2.45
2022-11-30T04:41:04.794Z,-2.47
2022-11-30T04:44:10.797Z,-2.50
2022-11-30T04:47:15.884Z,-2.49
2022-11-30T04:50:22.344Z,-2.50
2022-11-30T04:53:28.537Z,-2.50
2022-11-30T04:56:27.779Z,-2.50
2022-11-30T04:59:35.378Z,-2.47
2022-11-30T05:02:42.225Z,-2.46
2022-11-30T05:05:47.248Z,-1.78
2022-11-30T05:08:52.782Z,-2.36
2022-11-30T05:11:58.358Z,-2.37
2022-11-30T05:15:04.239Z,-2.33
2022-11-30T05:18:16.052Z,-2.30
2022-11-30T05:21:23.275Z,-2.28
2022-11-30T05:24:29.010Z,-2.24
2022-11-30T05:27:35.533Z,-1.89
2022-11-30T05:30:42.173Z,-2.11
2022-11-30T05:33:47.883Z,-2.22
2022-11-30T05:36:53.031Z,-2.19
2022-11-30T05:39:59.605Z,-2.18
2022-11-30T05:43:10.283Z,-2.17
2022-11-30T05:46:17.476Z,-2.21
2022-11-30T05:49:23.461Z,-2.22
2022-11-30T05:52:28.938Z,-2.20
2022-11-30T05:55:34.282Z,-2.18
2022-11-30T05:58:40.327Z,-2.13
2022-11-30T06:01:46.404Z,-2.11
2022-11-30T06:04:51.280Z,-2.01
2022-11-30T06:07:56.940Z,-2.05
2022-11-30T06:11:02.788Z,-2.02
2022-11-30T06:14:09.717Z,-1.99
2022-11-30T06:17:16.879Z,-1.94
2022-11-30T06:20:24.768Z,-1.93
2022-11-30T06:23:30.416Z,-1.93
2022-11-30T06:26:35.927Z,-1.91
2022-11-30T06:29:41.693Z,-1.55
2022-11-30T06:32:47.374Z,-1.86
2022-11-30T06:36:01.700Z,-1.80
2022-11-30T06:39:07.189Z,-1.52
2022-11-30T06:42:12.459Z,-0.71
2022-11-30T06:45:18.293Z,-1.56
2022-11-30T06:48:24.117Z,-1.48
2022-11-30T06:51:28.857Z,-1.50
2022-11-30T06:54:34.394Z,-1.43
2022-11-30T06:57:46.942Z,-1.40
2022-11-30T07:00:53.630Z,-1.37
2022-11-30T07:03:59.243Z,-1.33
2022-11-30T07:07:04.495Z,-1.24
2022-11-30T07:10:12.952Z,-1.23
2022-11-30T07:13:18.905Z,-1.15
2022-11-30T07:16:24.906Z,-1.10
2022-11-30T07:19:30.148Z,-1.04
2022-11-30T07:22:35.591Z,-0.97
2022-11-30T07:25:58.551Z,-0.90
2022-11-30T07:29:08.352Z,-0.94
2022-11-30T07:32:13.717Z,-0.96
2022-11-30T07:35:19.457Z,-1.01
2022-11-30T07:38:24.971Z,-0.97
2022-11-30T07:41:30.690Z,-0.95
2022-11-30T07:44:37.012Z,-0.96
2022-11-30T07:47:41.766Z,-0.89
2022-11-30T07:50:47.916Z,-0.83
2022-11-30T07:53:54.531Z,-0.83
2022-11-30T07:57:00.107Z,-0.80
2022-11-30T08:00:05.703Z,-0.72
2022-11-30T08:03:11.032Z,-0.63
2022-11-30T08:06:19.888Z,-0.61
2022-11-30T08:09:29.943Z,-0.62
2022-11-30T08:12:35.894Z,-0.61
2022-11-30T08:15:41.434Z,-0.61
2022-11-30T08:18:48.369Z,-0.59
2022-11-30T08:21:59.026Z,-0.55
2022-11-30T08:25:08.573Z,-0.48
2022-11-30T08:28:15.868Z,-0.42
2022-11-30T08:31:25.284Z,-0.30
2022-11-30T08:34:30.862Z,-0.23
2022-11-30T08:37:38.405Z,-0.30
2022-11-30T08:40:44.502Z,-0.24
2022-11-30T08:43:50.022Z,-0.12
2022-11-30T08:46:54.586Z,-0.05
2022-11-30T08:50:00.004Z,0.03
2022-11-30T08:53:07.892Z,0.11
2022-11-30T08:56:18.000Z,0.22
2022-11-30T08:59:23.527Z,0.28
2022-11-30T09:02:30.370Z,0.33
2022-11-30T09:05:36.040Z,2.59
2022-11-30T09:08:41.680Z,3.23
2022-11-30T09:11:47.761Z,0.90
2022-11-30T09:14:58.048Z,0.57
2022-11-30T09:18:01.183Z,0.47
2022-11-30T09:21:07.872Z,0.48
2022-11-30T09:24:13.142Z,0.48
2022-11-30T09:27:17.682Z,0.51
2022-11-30T09:30:24.678Z,0.47
2022-11-30T09:33:31.137Z,0.50
2022-11-30T09:36:37.810Z,0.62
2022-11-30T09:39:43.439Z,0.75
2022-11-30T09:43:37.728Z,2.33
2022-11-30T09:46:59.392Z,3.24
2022-11-30T09:50:04.315Z,3.90
2022-11-30T09:53:18.065Z,4.01
2022-11-30T09:56:38.491Z,3.88
2022-11-30T09:59:46.135Z,4.04
2022-11-30T10:02:53.287Z,4.42
2022-11-30T10:10:30.871Z,4.95
2022-11-30T10:13:05.701Z,4.93
2022-11-30T10:16:34.374Z,4.96
2022-11-30T10:20:03.192Z,5.02
2022-11-30T10:23:28.341Z,4.81
2022-11-30T10:26:46.822Z,4.90
2022-11-30T10:29:55.254Z,4.92
2022-11-30T10:33:04.002Z,5.20
2022-11-30T10:36:12.436Z,5.34
2022-11-30T10:39:22.708Z,5.44
2022-11-30T10:42:43.843Z,5.78
2022-11-30T10:45:50.527Z,6.14
2022-11-30T10:48:51.469Z,6.03
2022-11-30T10:51:43.840Z,6.59
2022-11-30T10:54:49.460Z,6.26
2022-11-30T10:57:55.715Z,5.98
2022-11-30T11:01:15.592Z,5.99
2022-11-30T11:04:36.993Z,6.07
2022-11-30T11:07:42.160Z,6.23
2022-11-30T11:10:57.785Z,6.37
2022-11-30T11:14:02.922Z,6.43
2022-11-30T11:17:21.576Z,6.48
2022-11-30T11:20:55.799Z,6.59
2022-11-30T11:24:03.200Z,6.27
2022-11-30T11:27:10.224Z,6.51
2022-11-30T11:30:44.750Z,6.46
2022-11-30T11:33:49.734Z,6.58
2022-11-30T11:36:56.062Z,6.58
2022-11-30T11:40:18.683Z,6.58
2022-11-30T11:43:30.094Z,6.81
2022-11-30T11:46:36.734Z,6.94
2022-11-30T11:49:54.664Z,7.05
2022-11-30T11:53:00.859Z,7.06
2022-11-30T11:56:19.644Z,7.17
2022-11-30T12:00:18.397Z,7.32
2022-11-30T12:03:56.961Z,7.27
2022-11-30T12:07:02.445Z,7.29
2022-11-30T12:10:52.998Z,7.36
2022-11-30T12:13:57.272Z,7.21
2022-11-30T12:17:19.314Z,7.02
2022-11-30T12:20:32.945Z,7.32
2022-11-30T12:23:50.300Z,7.23
2022-11-30T12:27:16.593Z,7.40
2022-11-30T12:31:00.466Z,7.30
2022-11-30T12:34:17.464Z,6.89
2022-11-30T12:37:58.996Z,6.86
2022-11-30T12:41:44.776Z,6.92
2022-11-30T12:45:13.304Z,6.94
2022-11-30T12:48:47.110Z,7.16
2022-11-30T12:52:05.652Z,7.25
2022-11-30T12:55:40.204Z,7.24
2022-11-30T12:59:03.789Z,7.04
2022-11-30T13:02:42.000Z,6.86
2022-11-30T13:06:04.336Z,6.83
2022-11-30T13:09:50.728Z,7.00
2022-11-30T13:13:00.466Z,6.76
2022-11-30T13:16:05.785Z,6.85
2022-11-30T13:19:15.722Z,6.74
2022-11-30T13:22:25.171Z,6.85
2022-11-30T13:28:58.816Z,6.86
2022-11-30T13:32:56.773Z,7.05
2022-11-30T13:35:55.042Z,6.93
2022-11-30T13:39:01.114Z,6.96
2022-11-30T13:42:31.405Z,6.99
2022-11-30T13:45:47.189Z,6.90
2022-11-30T13:48:55.656Z,6.89
2022-11-30T13:52:22.061Z,6.89
2022-11-30T13:55:09.494Z,6.36
2022-11-30T13:58:19.852Z,6.56
2022-11-30T14:01:42.636Z,6.76
2022-11-30T14:04:49.437Z,6.87
2022-11-30T14:07:58.069Z,6.89
2022-11-30T14:11:04.898Z,6.77
2022-11-30T14:14:10.010Z,6.62
2022-11-30T14:17:15.612Z,6.49
2022-11-30T14:20:37.608Z,6.57
2022-11-30T14:23:51.163Z,6.54
2022-11-30T14:26:54.569Z,6.40
2022-11-30T14:29:49.592Z,6.67
2022-11-30T14:33:02.722Z,6.59
2022-11-30T14:36:10.584Z,6.51
2022-11-30T14:39:16.552Z,6.43
2022-11-30T14:42:39.071Z,6.52
2022-11-30T14:45:46.616Z,6.58
2022-11-30T14:48:53.628Z,6.56
2022-11-30T14:52:03.081Z,6.40
2022-11-30T14:55:44.341Z,6.23
2022-11-30T14:59:16.466Z,6.18
2022-11-30T15:02:24.483Z,6.34
2022-11-30T15:05:37.560Z,6.21
2022-11-30T15:08:50.002Z,6.02
2022-11-30T15:12:02.603Z,6.11
2022-11-30T15:15:41.889Z,6.36
2022-11-30T15:18:47.610Z,6.13
2022-11-30T15:21:55.179Z,6.33
2022-11-30T15:25:00.831Z,6.18
2022-11-30T15:28:06.597Z,6.21
2022-11-30T15:31:13.351Z,6.21
2022-11-30T15:34:19.992Z,6.30
2022-11-30T15:37:26.630Z,6.48
2022-11-30T15:40:53.181Z,6.50
2022-11-30T15:43:56.194Z,6.48
2022-11-30T15:47:14.684Z,6.25
2022-11-30T15:50:46.471Z,6.23
2022-11-30T15:54:05.762Z,6.27
2022-11-30T15:57:12.502Z,6.22
2022-11-30T16:00:36.220Z,6.06
2022-11-30T16:03:41.779Z,5.95
2022-11-30T19:25:19.281Z,6.27
2022-11-30T19:28:24.898Z,7.06
2022-11-30T19:31:32.950Z,8.32
2022-11-30T19:34:39.412Z,8.80
2022-11-30T19:37:45.463Z,8.20
2022-11-30T19:40:53.142Z,8.63
2022-11-30T19:44:03.790Z,9.01
2022-11-30T19:47:09.061Z,10.06
2022-11-30T19:50:14.675Z,10.03
2022-11-30T19:53:19.799Z,5.36
2022-11-30T19:56:32.795Z,0.50
2022-11-30T19:59:39.664Z,-0.13
2022-11-30T20:02:45.811Z,-0.14
2022-11-30T20:05:51.655Z,-0.34
2022-11-30T20:08:56.652Z,-0.32
2022-11-30T20:12:02.867Z,-0.43
2022-11-30T20:15:01.715Z,-0.33
2022-11-30T20:18:07.758Z,-0.38
2022-11-30T20:21:13.197Z,-0.39
2022-11-30T20:24:22.527Z,-0.33
2022-11-30T20:27:29.922Z,-0.50
2022-11-30T20:30:36.679Z,-0.41
2022-11-30T20:33:42.624Z,-0.40
2022-11-30T20:36:50.287Z,-0.28
2022-11-30T20:39:57.351Z,1.77
2022-11-30T20:43:05.194Z,2.65
2022-11-30T20:46:10.777Z,3.00
2022-11-30T20:49:17.346Z,3.43
2022-11-30T20:52:22.063Z,3.56
2022-11-30T20:55:27.517Z,3.95
2022-11-30T20:58:32.910Z,1.22
2022-11-30T21:01:39.355Z,0.94
2022-11-30T21:04:45.916Z,1.54
2022-11-30T21:07:51.689Z,2.51
2022-11-30T21:10:57.619Z,2.37
2022-11-30T21:14:03.784Z,2.76
2022-11-30T21:17:09.735Z,3.40
2022-11-30T21:20:15.545Z,3.50
2022-11-30T21:23:24.996Z,3.70
2022-11-30T21:26:39.084Z,4.15
2022-11-30T21:29:44.897Z,4.44
2022-11-30T21:32:50.940Z,4.61
2022-11-30T21:35:49.655Z,4.56
2022-11-30T21:38:42.363Z,4.46
2022-11-30T21:41:47.322Z,3.46
2022-11-30T21:44:52.874Z,3.97
2022-11-30T21:47:58.616Z,3.81
2022-11-30T21:51:03.692Z,3.87
2022-11-30T21:54:16.436Z,3.99
2022-11-30T21:57:23.113Z,4.13
2022-11-30T22:00:29.790Z,4.58
2022-11-30T22:03:35.692Z,4.39
2022-11-30T22:06:43.612Z,4.33
2022-11-30T22:09:51.348Z,4.48
2022-11-30T22:12:57.834Z,4.41
2022-11-30T22:16:03.569Z,4.86
2022-11-30T22:19:09.972Z,4.81
2022-11-30T22:22:15.572Z,4.87
2022-11-30T22:25:21.677Z,5.06
2022-11-30T22:28:26.947Z,5.21
2022-11-30T22:31:34.175Z,4.79
2022-11-30T22:34:39.622Z,4.58
2022-11-30T22:37:44.323Z,4.44
2022-11-30T22:40:49.939Z,4.80
2022-11-30T22:43:57.334Z,5.06
2022-11-30T22:47:04.147Z,5.11
2022-11-30T22:50:09.564Z,5.02
2022-11-30T22:53:15.590Z,4.67
2022-11-30T22:56:24.379Z,4.73
2022-11-30T22:59:30.828Z,4.90
2022-11-30T23:02:36.356Z,5.52
2022-11-30T23:05:42.090Z,5.04
2022-11-30T23:08:48.325Z,5.24
2022-11-30T23:11:53.948Z,5.29
2022-11-30T23:15:00.760Z,5.34
2022-11-30T23:18:06.673Z,5.24
2022-11-30T23:21:11.695Z,5.34
2022-11-30T23:24:18.294Z,5.28
2022-11-30T23:27:24.127Z,5.24
2022-11-30T23:30:30.310Z,5.50
2022-11-30T23:33:37.979Z,5.23
2022-11-30T23:36:43.922Z,5.30
2022-11-30T23:39:49.165Z,5.70
2022-11-30T23:42:55.702Z,5.79
2022-11-30T23:46:01.257Z,5.60
2022-11-30T23:49:07.876Z,5.55
2022-11-30T23:52:13.113Z,5.75
2022-11-30T23:55:20.352Z,5.93
2022-11-30T23:58:26.173Z,5.83
